createdAt,value
2016-12-10T00:00:49.141Z,0
2016-12-10T00:01:59.857Z,0
2016-12-10T00:03:10.632Z,0
2016-12-10T00:04:21.674Z,0
2016-12-10T00:05:32.425Z,0
2016-12-10T00:06:43.171Z,0
2016-12-10T00:07:53.930Z,0
2016-12-10T00:09:04.662Z,0
2016-12-10T00:10:15.429Z,0
2016-12-10T00:11:26.154Z,0
2016-12-10T00:12:36.898Z,0
2016-12-10T00:13:47.622Z,0
2016-12-10T00:14:58.341Z,0
2016-12-10T00:16:09.064Z,0
2016-12-10T00:17:19.812Z,0
2016-12-10T00:18:30.558Z,0
2016-12-10T00:19:41.303Z,0
2016-12-10T00:20:52.047Z,0
2016-12-10T00:22:03.068Z,0
2016-12-10T00:23:13.793Z,0
2016-12-10T00:24:24.537Z,0
2016-12-10T00:25:35.260Z,0
2016-12-10T00:26:46.009Z,0
2016-12-10T00:27:57.048Z,0
2016-12-10T00:29:07.769Z,0
2016-12-10T00:30:18.521Z,0
2016-12-10T00:31:29.237Z,0
2016-12-10T00:32:39.939Z,0
2016-12-10T00:33:50.679Z,0
2016-12-10T00:35:01.405Z,0
2016-12-10T00:36:12.139Z,0
2016-12-10T00:37:22.843Z,0
2016-12-10T00:38:33.568Z,0
2016-12-10T00:39:44.287Z,0
2016-12-10T00:40:55.011Z,0
2016-12-10T00:42:05.757Z,0
2016-12-10T00:43:16.474Z,0
2016-12-10T00:44:27.175Z,0
2016-12-10T00:45:37.920Z,0
2016-12-10T00:46:48.656Z,0
2016-12-10T00:47:59.388Z,0
2016-12-10T00:49:10.112Z,0
2016-12-10T00:50:20.870Z,0
2016-12-10T00:51:31.602Z,0
2016-12-10T00:52:42.648Z,0
2016-12-10T00:53:53.396Z,0
2016-12-10T00:55:04.141Z,0
2016-12-10T00:56:14.888Z,0
2016-12-10T00:57:25.605Z,0
2016-12-10T00:58:36.360Z,0
2016-12-10T00:59:47.074Z,0
2016-12-10T01:00:57.819Z,0
2016-12-10T01:02:08.557Z,0
2016-12-10T01:03:19.290Z,0
2016-12-10T01:04:30.080Z,0
2016-12-10T01:05:40.812Z,0
2016-12-10T01:06:51.573Z,0
2016-12-10T01:08:02.319Z,0
2016-12-10T01:09:13.043Z,0
2016-12-10T01:10:23.765Z,0
2016-12-10T01:11:34.486Z,0
2016-12-10T01:12:45.212Z,0
2016-12-10T01:13:55.958Z,0
2016-12-10T01:15:06.717Z,0
2016-12-10T01:16:17.446Z,0
2016-12-10T01:17:28.172Z,0
2016-12-10T01:18:38.896Z,0
2016-12-10T01:19:49.656Z,0
2016-12-10T01:21:00.410Z,0
2016-12-10T01:22:11.158Z,0
2016-12-10T01:23:21.898Z,0
2016-12-10T01:24:32.647Z,0
2016-12-10T01:25:43.366Z,0
2016-12-10T01:26:54.079Z,0
2016-12-10T01:28:04.813Z,0
2016-12-10T01:29:15.554Z,0
2016-12-10T01:30:26.275Z,0
2016-12-10T01:31:37.021Z,0
2016-12-10T01:32:47.796Z,0
2016-12-10T01:33:58.561Z,0
2016-12-10T01:35:09.568Z,0
2016-12-10T01:36:20.324Z,0
2016-12-10T01:37:31.052Z,0
2016-12-10T01:38:41.795Z,0
2016-12-10T01:39:52.512Z,0
2016-12-10T01:41:03.268Z,0
2016-12-10T01:42:13.991Z,0
2016-12-10T01:43:24.737Z,0
2016-12-10T01:44:35.471Z,0
2016-12-10T01:45:46.204Z,0
2016-12-10T01:46:56.950Z,0
2016-12-10T01:48:07.667Z,0
2016-12-10T01:49:18.416Z,0
2016-12-10T01:50:29.215Z,0
2016-12-10T01:51:39.953Z,0
2016-12-10T01:52:50.677Z,0
2016-12-10T01:54:01.398Z,0
2016-12-10T01:55:12.124Z,0
2016-12-10T01:56:22.868Z,0
2016-12-10T01:57:33.591Z,0
2016-12-10T01:58:44.337Z,0
2016-12-10T01:59:55.057Z,0
2016-12-10T02:01:05.772Z,0
2016-12-10T02:02:16.488Z,0
2016-12-10T02:03:27.242Z,0
2016-12-10T02:04:37.968Z,0
2016-12-10T02:05:48.733Z,0
2016-12-10T02:06:59.455Z,0
2016-12-10T02:08:10.181Z,0
2016-12-10T02:09:20.902Z,0
2016-12-10T02:10:31.648Z,0
2016-12-10T02:11:42.386Z,0
2016-12-10T02:12:53.114Z,0
2016-12-10T02:14:04.137Z,0
2016-12-10T02:15:14.928Z,0
2016-12-10T02:16:25.653Z,0
2016-12-10T02:17:36.376Z,0
2016-12-10T02:18:47.121Z,0
2016-12-10T02:19:57.864Z,0
2016-12-10T02:21:08.561Z,0
2016-12-10T02:22:19.272Z,0
2016-12-10T02:23:30.030Z,0
2016-12-10T02:24:40.772Z,0
2016-12-10T02:25:51.495Z,0
2016-12-10T02:27:02.239Z,0
2016-12-10T02:28:12.963Z,0
2016-12-10T02:29:23.731Z,0
2016-12-10T02:30:34.452Z,0
2016-12-10T02:31:45.180Z,0
2016-12-10T02:32:55.903Z,0
2016-12-10T02:34:06.621Z,0
2016-12-10T02:35:17.365Z,0
2016-12-10T02:36:28.150Z,0
2016-12-10T02:37:38.900Z,0
2016-12-10T02:38:49.624Z,0
2016-12-10T02:40:00.375Z,0
2016-12-10T02:41:11.117Z,0
2016-12-10T02:42:21.846Z,0
2016-12-10T02:43:32.879Z,0
2016-12-10T02:44:43.605Z,0
2016-12-10T02:45:54.347Z,0
2016-12-10T02:47:05.075Z,0
2016-12-10T02:48:15.821Z,0
2016-12-10T02:49:26.543Z,0
2016-12-10T02:50:37.261Z,0
2016-12-10T02:51:47.980Z,0
2016-12-10T02:52:58.701Z,0
2016-12-10T02:54:09.422Z,0
2016-12-10T02:55:20.165Z,0
2016-12-10T02:56:30.894Z,0
2016-12-10T02:57:41.639Z,0
2016-12-10T02:58:52.381Z,0
2016-12-10T03:00:03.106Z,0
2016-12-10T03:01:13.848Z,0
2016-12-10T03:02:24.600Z,0
2016-12-10T03:03:35.341Z,0
2016-12-10T03:04:46.069Z,0
2016-12-10T03:05:56.855Z,0
2016-12-10T03:07:07.633Z,0
2016-12-10T03:08:18.375Z,0
2016-12-10T03:09:29.092Z,0
2016-12-10T03:10:39.841Z,0
2016-12-10T03:11:50.619Z,0
2016-12-10T03:13:01.389Z,0
2016-12-10T03:14:12.159Z,0
2016-12-10T03:15:22.897Z,0
2016-12-10T03:16:33.620Z,0
2016-12-10T03:17:44.344Z,0
2016-12-10T03:18:55.095Z,0
2016-12-10T03:20:05.826Z,0
2016-12-10T03:21:16.577Z,0
2016-12-10T03:22:27.347Z,0
2016-12-10T03:23:38.052Z,0
2016-12-10T03:24:49.139Z,0
2016-12-10T03:25:59.910Z,0
2016-12-10T03:27:10.637Z,0
2016-12-10T03:28:21.360Z,0
2016-12-10T03:29:32.118Z,0
2016-12-10T03:30:42.897Z,0
2016-12-10T03:31:53.639Z,0
2016-12-10T03:33:04.411Z,0
2016-12-10T03:34:15.141Z,0
2016-12-10T03:35:25.884Z,0
2016-12-10T03:36:36.581Z,0
2016-12-10T03:37:47.354Z,0
2016-12-10T03:38:58.098Z,0
2016-12-10T03:40:08.858Z,0
2016-12-10T03:41:19.589Z,0
2016-12-10T03:42:30.331Z,0
2016-12-10T03:43:41.053Z,0
2016-12-10T03:44:51.780Z,0
2016-12-10T03:46:02.523Z,0
2016-12-10T03:47:13.265Z,0
2016-12-10T03:48:23.986Z,0
2016-12-10T03:49:34.725Z,0
2016-12-10T03:50:45.473Z,0
2016-12-10T03:51:56.245Z,0
2016-12-10T03:53:06.969Z,0
2016-12-10T03:54:17.718Z,0
2016-12-10T03:55:28.478Z,0
2016-12-10T03:56:39.224Z,0
2016-12-10T03:57:49.981Z,0
2016-12-10T03:59:01.028Z,0
2016-12-10T04:00:11.769Z,0
2016-12-10T04:01:22.548Z,0
2016-12-10T04:02:33.316Z,0
2016-12-10T04:03:44.056Z,0
2016-12-10T04:04:54.811Z,0
2016-12-10T04:06:05.552Z,0
2016-12-10T04:07:16.299Z,0
2016-12-10T04:08:27.020Z,0
2016-12-10T04:09:37.761Z,0
2016-12-10T04:10:48.506Z,0
2016-12-10T04:11:59.231Z,0
2016-12-10T04:13:09.973Z,0
2016-12-10T04:14:20.699Z,0
2016-12-10T04:15:31.390Z,0
2016-12-10T04:16:42.141Z,0
2016-12-10T04:17:52.882Z,0
2016-12-10T04:19:03.603Z,0
2016-12-10T04:20:14.342Z,0
2016-12-10T04:21:25.094Z,0
2016-12-10T04:22:35.844Z,0
2016-12-10T04:23:46.594Z,0
2016-12-10T04:24:57.336Z,0
2016-12-10T04:26:08.657Z,0
2016-12-10T04:27:19.376Z,0
2016-12-10T04:28:30.097Z,0
2016-12-10T04:29:40.838Z,0
2016-12-10T04:30:51.583Z,0
2016-12-10T04:32:02.337Z,0
2016-12-10T04:33:13.060Z,0
2016-12-10T04:34:23.817Z,0
2016-12-10T04:35:34.576Z,0
2016-12-10T04:36:45.322Z,0
2016-12-10T04:37:56.069Z,0
2016-12-10T04:39:06.814Z,0
2016-12-10T04:40:17.586Z,0
2016-12-10T04:41:28.330Z,0
2016-12-10T04:42:39.101Z,0
2016-12-10T04:43:49.847Z,0
2016-12-10T04:45:00.594Z,0
2016-12-10T04:46:11.340Z,0
2016-12-10T04:47:22.086Z,0
2016-12-10T04:48:32.832Z,0
2016-12-10T04:49:43.578Z,0
2016-12-10T04:50:54.323Z,0
2016-12-10T04:52:05.420Z,0
2016-12-10T04:53:16.167Z,0
2016-12-10T04:54:26.924Z,0
2016-12-10T04:55:37.657Z,0
2016-12-10T04:56:48.391Z,0
2016-12-10T04:57:59.121Z,0
2016-12-10T04:59:09.865Z,0
2016-12-10T05:00:20.604Z,0
2016-12-10T05:01:31.364Z,0
2016-12-10T05:02:42.103Z,0
2016-12-10T05:03:52.825Z,0
2016-12-10T05:05:03.551Z,0
2016-12-10T05:06:14.609Z,0
2016-12-10T05:07:25.368Z,0
2016-12-10T05:08:36.130Z,0
2016-12-10T05:09:46.861Z,0
2016-12-10T05:10:57.605Z,0
2016-12-10T05:12:08.647Z,0
2016-12-10T05:13:19.372Z,0
2016-12-10T05:14:30.134Z,0
2016-12-10T05:15:40.884Z,0
2016-12-10T05:16:51.605Z,0
2016-12-10T05:18:02.319Z,0
2016-12-10T05:19:13.070Z,0
2016-12-10T05:20:23.819Z,0
2016-12-10T05:21:34.589Z,0
2016-12-10T05:22:45.332Z,0
2016-12-10T05:23:56.085Z,0
2016-12-10T05:25:06.832Z,0
2016-12-10T05:26:17.578Z,0
2016-12-10T05:27:28.296Z,0
2016-12-10T05:28:39.038Z,0
2016-12-10T05:29:49.758Z,0
2016-12-10T05:31:00.486Z,0
2016-12-10T05:32:11.230Z,0
2016-12-10T05:33:21.975Z,0
2016-12-10T05:34:32.699Z,0
2016-12-10T05:35:43.445Z,0
2016-12-10T05:36:54.187Z,0
2016-12-10T05:38:04.886Z,0
2016-12-10T05:39:15.631Z,0
2016-12-10T05:40:26.350Z,0
2016-12-10T05:41:37.075Z,0
2016-12-10T05:42:48.125Z,0
2016-12-10T05:43:58.863Z,0
2016-12-10T05:45:09.601Z,0
2016-12-10T05:46:20.307Z,0
2016-12-10T05:47:31.051Z,0
2016-12-10T05:48:41.796Z,0
2016-12-10T05:49:52.525Z,0
2016-12-10T05:51:03.269Z,0
2016-12-10T05:52:14.017Z,0
2016-12-10T05:53:24.731Z,0
2016-12-10T05:54:35.469Z,0
2016-12-10T05:55:46.198Z,0
2016-12-10T05:56:56.915Z,0
2016-12-10T05:58:07.645Z,0
2016-12-10T05:59:18.411Z,0
2016-12-10T06:00:29.157Z,0
2016-12-10T06:01:40.170Z,0
2016-12-10T06:02:50.923Z,0
2016-12-10T06:04:01.669Z,0
2016-12-10T06:05:12.415Z,0
2016-12-10T06:06:23.165Z,0
2016-12-10T06:07:33.909Z,0
2016-12-10T06:08:44.632Z,0
2016-12-10T06:09:55.378Z,0
2016-12-10T06:11:06.119Z,0
2016-12-10T06:12:16.861Z,0
2016-12-10T06:13:27.585Z,0
2016-12-10T06:14:38.323Z,0
2016-12-10T06:15:49.056Z,0
2016-12-10T06:16:59.819Z,0
2016-12-10T06:18:10.836Z,0
2016-12-10T06:19:21.597Z,0
2016-12-10T06:20:32.339Z,0
2016-12-10T06:21:43.087Z,0
2016-12-10T06:22:53.830Z,0
2016-12-10T06:24:04.565Z,0
2016-12-10T06:25:15.318Z,0
2016-12-10T06:26:26.058Z,0
2016-12-10T06:27:36.786Z,0
2016-12-10T06:28:47.556Z,0
2016-12-10T06:29:58.295Z,0
2016-12-10T06:31:09.028Z,0
2016-12-10T06:32:19.800Z,0
2016-12-10T06:33:30.515Z,0
2016-12-10T06:34:41.234Z,0
2016-12-10T06:35:51.987Z,4
2016-12-10T06:37:02.728Z,4
2016-12-10T06:38:13.446Z,4
2016-12-10T06:39:24.201Z,4
2016-12-10T06:40:34.963Z,4
2016-12-10T06:41:45.693Z,8
2016-12-10T06:42:56.425Z,4
2016-12-10T06:44:07.158Z,8
2016-12-10T06:45:17.947Z,8
2016-12-10T06:46:28.671Z,12
2016-12-10T06:47:39.465Z,12
2016-12-10T06:48:50.245Z,16
2016-12-10T06:50:00.989Z,20
2016-12-10T06:51:11.734Z,20
2016-12-10T06:52:22.479Z,20
2016-12-10T06:53:33.201Z,24
2016-12-10T06:54:43.948Z,32
2016-12-10T06:55:54.667Z,44
2016-12-10T06:57:05.415Z,48
2016-12-10T06:58:16.159Z,60
2016-12-10T06:59:26.901Z,72
2016-12-10T07:00:37.650Z,84
2016-12-10T07:01:48.697Z,88
2016-12-10T07:02:59.439Z,96
2016-12-10T07:04:10.166Z,100
2016-12-10T07:05:20.912Z,104
2016-12-10T07:06:31.629Z,104
2016-12-10T07:07:42.349Z,108
2016-12-10T07:08:53.069Z,112
2016-12-10T07:10:03.765Z,120
2016-12-10T07:11:14.489Z,136
2016-12-10T07:12:25.213Z,160
2016-12-10T07:13:35.954Z,184
2016-12-10T07:14:46.704Z,212
2016-12-10T07:15:57.451Z,232
2016-12-10T07:17:08.193Z,252
2016-12-10T07:18:18.912Z,272
2016-12-10T07:19:29.659Z,304
2016-12-10T07:20:40.384Z,340
2016-12-10T07:21:51.148Z,380
2016-12-10T07:23:01.873Z,424
2016-12-10T07:24:12.597Z,464
2016-12-10T07:25:23.339Z,484
2016-12-10T07:26:34.082Z,488
2016-12-10T07:27:44.848Z,484
2016-12-10T07:28:55.582Z,492
2016-12-10T07:30:06.329Z,516
2016-12-10T07:31:17.045Z,536
2016-12-10T07:32:27.770Z,556
2016-12-10T07:33:38.511Z,552
2016-12-10T07:34:49.282Z,576
2016-12-10T07:36:00.028Z,660
2016-12-10T07:37:10.778Z,760
2016-12-10T07:38:21.542Z,832
2016-12-10T07:39:32.295Z,868
2016-12-10T07:40:43.038Z,896
2016-12-10T07:41:53.787Z,940
2016-12-10T07:43:04.512Z,1008
2016-12-10T07:44:15.272Z,1052
2016-12-10T07:45:25.992Z,1048
2016-12-10T07:46:36.717Z,1036
2016-12-10T07:47:47.435Z,1072
2016-12-10T07:48:58.163Z,1172
2016-12-10T07:50:08.884Z,1256
2016-12-10T07:51:19.648Z,1252
2016-12-10T07:52:30.389Z,1212
2016-12-10T07:53:41.118Z,1260
2016-12-10T07:54:51.885Z,1364
2016-12-10T07:56:02.631Z,1444
2016-12-10T07:57:13.376Z,1496
2016-12-10T07:58:24.125Z,1536
2016-12-10T07:59:34.893Z,1568
2016-12-10T08:00:45.648Z,1612
2016-12-10T08:01:56.393Z,1652
2016-12-10T08:03:07.434Z,1692
2016-12-10T08:04:18.154Z,1768
2016-12-10T08:05:28.879Z,1888
2016-12-10T08:06:39.650Z,2032
2016-12-10T08:07:50.367Z,2176
2016-12-10T08:09:01.092Z,2292
2016-12-10T08:10:11.856Z,2332
2016-12-10T08:11:22.602Z,2360
2016-12-10T08:12:33.332Z,2412
2016-12-10T08:13:44.073Z,2512
2016-12-10T08:14:54.819Z,2588
2016-12-10T08:16:05.542Z,2640
2016-12-10T08:17:16.291Z,2736
2016-12-10T08:18:27.031Z,2844
2016-12-10T08:19:37.757Z,2924
2016-12-10T08:20:48.502Z,2976
2016-12-10T08:21:59.261Z,2980
2016-12-10T08:23:10.015Z,2948
2016-12-10T08:24:21.062Z,2912
2016-12-10T08:25:31.804Z,2904
2016-12-10T08:26:42.545Z,2924
2016-12-10T08:27:53.299Z,2952
2016-12-10T08:29:04.017Z,3028
2016-12-10T08:30:14.745Z,3120
2016-12-10T08:31:25.520Z,3180
2016-12-10T08:32:36.263Z,3224
2016-12-10T08:33:47.033Z,3268
2016-12-10T08:34:57.776Z,3336
2016-12-10T08:36:08.539Z,3400
2016-12-10T08:37:19.268Z,3448
2016-12-10T08:38:29.992Z,3500
2016-12-10T08:39:40.740Z,3596
2016-12-10T08:40:51.484Z,3716
2016-12-10T08:42:02.219Z,3832
2016-12-10T08:43:12.978Z,3924
2016-12-10T08:44:23.719Z,4044
2016-12-10T08:45:34.439Z,4196
2016-12-10T08:46:45.182Z,4296
2016-12-10T08:47:55.935Z,4320
2016-12-10T08:49:06.681Z,4252
2016-12-10T08:50:17.453Z,4200
2016-12-10T08:51:28.195Z,4212
2016-12-10T08:52:38.944Z,4236
2016-12-10T08:53:49.686Z,4224
2016-12-10T08:55:00.400Z,4140
2016-12-10T08:56:11.128Z,3916
2016-12-10T08:57:21.867Z,3636
2016-12-10T08:58:32.599Z,3440
2016-12-10T08:59:43.340Z,3336
2016-12-10T09:00:54.062Z,3320
2016-12-10T09:02:04.813Z,3372
2016-12-10T09:03:15.535Z,3500
2016-12-10T09:04:26.280Z,3652
2016-12-10T09:05:37.017Z,3780
2016-12-10T09:06:48.088Z,3872
2016-12-10T09:07:58.822Z,3920
2016-12-10T09:09:09.562Z,3984
2016-12-10T09:10:20.321Z,4124
2016-12-10T09:11:31.050Z,4332
2016-12-10T09:12:41.770Z,4552
2016-12-10T09:13:52.514Z,4704
2016-12-10T09:15:03.290Z,4760
2016-12-10T09:16:14.050Z,4676
2016-12-10T09:17:24.804Z,4584
2016-12-10T09:18:35.543Z,4580
2016-12-10T09:19:46.303Z,4640
2016-12-10T09:20:57.342Z,4676
2016-12-10T09:22:08.063Z,4704
2016-12-10T09:23:18.786Z,4796
2016-12-10T09:24:29.504Z,5020
2016-12-10T09:25:40.227Z,5264
2016-12-10T09:26:50.946Z,5340
2016-12-10T09:28:01.697Z,5280
2016-12-10T09:29:12.443Z,5116
2016-12-10T09:30:23.190Z,4956
2016-12-10T09:31:33.952Z,4836
2016-12-10T09:32:44.680Z,4616
2016-12-10T09:33:55.428Z,4356
2016-12-10T09:35:06.175Z,4200
2016-12-10T09:36:16.914Z,4292
2016-12-10T09:37:27.639Z,4448
2016-12-10T09:38:38.385Z,4448
2016-12-10T09:39:49.119Z,4508
2016-12-10T09:40:59.847Z,4576
2016-12-10T09:42:10.618Z,4556
2016-12-10T09:43:21.332Z,4564
2016-12-10T09:44:32.078Z,4640
2016-12-10T09:45:42.823Z,4616
2016-12-10T09:46:53.584Z,4580
2016-12-10T09:48:04.323Z,4724
2016-12-10T09:49:15.071Z,5020
2016-12-10T09:50:25.815Z,5320
2016-12-10T09:51:36.562Z,5676
2016-12-10T09:52:47.286Z,6092
2016-12-10T09:53:58.024Z,6320
2016-12-10T09:55:08.753Z,6460
2016-12-10T09:56:19.495Z,6624
2016-12-10T09:57:30.284Z,6816
2016-12-10T09:58:41.055Z,6828
2016-12-10T09:59:51.783Z,6372
2016-12-10T10:01:02.859Z,6080
2016-12-10T10:02:13.605Z,6204
2016-12-10T10:03:24.353Z,6392
2016-12-10T10:04:35.098Z,6344
2016-12-10T10:05:45.832Z,6420
2016-12-10T10:06:56.565Z,6476
2016-12-10T10:08:07.312Z,6520
2016-12-10T10:09:18.070Z,6640
2016-12-10T10:10:28.800Z,6392
2016-12-10T10:11:39.512Z,6308
2016-12-10T10:12:50.266Z,6776
2016-12-10T10:14:01.009Z,7332
2016-12-10T10:15:11.737Z,7692
2016-12-10T10:16:22.496Z,7860
2016-12-10T10:17:33.247Z,7888
2016-12-10T10:18:44.001Z,7836
2016-12-10T10:19:54.760Z,7684
2016-12-10T10:21:05.493Z,7324
2016-12-10T10:22:16.260Z,6804
2016-12-10T10:23:26.990Z,6312
2016-12-10T10:24:37.744Z,6088
2016-12-10T10:25:48.522Z,6000
2016-12-10T10:26:59.272Z,6008
2016-12-10T10:28:10.012Z,6100
2016-12-10T10:29:20.736Z,6028
2016-12-10T10:30:31.486Z,5760
2016-12-10T10:31:42.233Z,5572
2016-12-10T10:32:52.972Z,5456
2016-12-10T10:34:03.718Z,5364
2016-12-10T10:35:14.513Z,5344
2016-12-10T10:36:25.259Z,5492
2016-12-10T10:37:35.968Z,5692
2016-12-10T10:38:46.714Z,5920
2016-12-10T10:39:57.450Z,6060
2016-12-10T10:41:08.188Z,6188
2016-12-10T10:42:18.923Z,6448
2016-12-10T10:43:29.668Z,6856
2016-12-10T10:44:40.409Z,7252
2016-12-10T10:45:51.133Z,7548
2016-12-10T10:47:01.855Z,7808
2016-12-10T10:48:12.597Z,7972
2016-12-10T10:49:23.345Z,8056
2016-12-10T10:50:34.044Z,8040
2016-12-10T10:51:44.785Z,7460
2016-12-10T10:52:55.560Z,6692
2016-12-10T10:54:06.310Z,6816
2016-12-10T10:55:17.074Z,7500
2016-12-10T10:56:27.794Z,7632
2016-12-10T10:57:38.540Z,7272
2016-12-10T10:58:49.313Z,6856
2016-12-10T11:00:00.079Z,6544
2016-12-10T11:01:11.130Z,6180
2016-12-10T11:02:21.871Z,5892
2016-12-10T11:03:32.600Z,5728
2016-12-10T11:04:43.319Z,5604
2016-12-10T11:05:54.038Z,5456
2016-12-10T11:07:04.758Z,5504
2016-12-10T11:08:15.498Z,5752
2016-12-10T11:09:26.230Z,6000
2016-12-10T11:10:36.975Z,6184
2016-12-10T11:11:47.723Z,6192
2016-12-10T11:12:58.445Z,6064
2016-12-10T11:14:09.501Z,5788
2016-12-10T11:15:20.231Z,5540
2016-12-10T11:16:30.980Z,5348
2016-12-10T11:17:41.699Z,5196
2016-12-10T11:18:52.424Z,5148
2016-12-10T11:20:03.156Z,5272
2016-12-10T11:21:13.890Z,5432
2016-12-10T11:22:24.638Z,5656
2016-12-10T11:23:35.399Z,5972
2016-12-10T11:24:46.152Z,6152
2016-12-10T11:25:56.896Z,6200
2016-12-10T11:27:07.621Z,6284
2016-12-10T11:28:18.361Z,6392
2016-12-10T11:29:29.108Z,6312
2016-12-10T11:30:39.825Z,6280
2016-12-10T11:31:50.554Z,6264
2016-12-10T11:33:01.327Z,6008
2016-12-10T11:34:12.066Z,5644
2016-12-10T11:35:22.815Z,5704
2016-12-10T11:36:33.538Z,6048
2016-12-10T11:37:44.276Z,5948
2016-12-10T11:38:55.001Z,5728
2016-12-10T11:40:05.723Z,5868
2016-12-10T11:41:16.465Z,6132
2016-12-10T11:42:27.219Z,6112
2016-12-10T11:43:37.965Z,5940
2016-12-10T11:44:49.032Z,6448
2016-12-10T11:45:59.754Z,7320
2016-12-10T11:47:10.482Z,7848
2016-12-10T11:48:21.224Z,7984
2016-12-10T11:49:31.970Z,7924
2016-12-10T11:50:42.730Z,7884
2016-12-10T11:51:53.459Z,8000
2016-12-10T11:53:04.162Z,8020
2016-12-10T11:54:14.900Z,7724
2016-12-10T11:55:25.626Z,7460
2016-12-10T11:56:36.351Z,7544
2016-12-10T11:57:47.093Z,7800
2016-12-10T11:58:57.853Z,7800
2016-12-10T12:00:08.587Z,7216
2016-12-10T12:01:19.344Z,6336
2016-12-10T12:02:30.140Z,5484
2016-12-10T12:03:40.866Z,5076
2016-12-10T12:04:51.597Z,5268
2016-12-10T12:06:02.333Z,5172
2016-12-10T12:07:13.058Z,5128
2016-12-10T12:08:23.830Z,6036
2016-12-10T12:09:34.555Z,6248
2016-12-10T12:10:45.318Z,6280
2016-12-10T12:11:56.060Z,6140
2016-12-10T12:13:06.817Z,5632
2016-12-10T12:14:17.564Z,5548
2016-12-10T12:15:28.288Z,5424
2016-12-10T12:16:39.029Z,5152
2016-12-10T12:17:49.748Z,4372
2016-12-10T12:19:00.492Z,4116
2016-12-10T12:20:11.257Z,3956
2016-12-10T12:21:21.979Z,3880
2016-12-10T12:22:32.699Z,3648
2016-12-10T12:23:43.476Z,3792
2016-12-10T12:24:54.230Z,3672
2016-12-10T12:26:04.954Z,3716
2016-12-10T12:27:15.696Z,3712
2016-12-10T12:28:26.444Z,3736
2016-12-10T12:29:37.190Z,3772
2016-12-10T12:30:47.930Z,3552
2016-12-10T12:31:58.976Z,3216
2016-12-10T12:33:09.748Z,3288
2016-12-10T12:34:20.476Z,3488
2016-12-10T12:35:31.190Z,3524
2016-12-10T12:36:41.911Z,3424
2016-12-10T12:37:52.649Z,3504
2016-12-10T12:39:03.432Z,3432
2016-12-10T12:40:14.179Z,3236
2016-12-10T12:41:24.896Z,3168
2016-12-10T12:42:35.666Z,2852
2016-12-10T12:43:46.443Z,2648
2016-12-10T12:44:57.188Z,2452
2016-12-10T12:46:07.947Z,2288
2016-12-10T12:47:18.682Z,2144
2016-12-10T12:48:29.400Z,1880
2016-12-10T12:49:40.119Z,1584
2016-12-10T12:50:51.120Z,1460
2016-12-10T12:52:01.863Z,1368
2016-12-10T12:53:12.586Z,1280
2016-12-10T12:54:23.333Z,1104
2016-12-10T12:55:34.099Z,1008
2016-12-10T12:56:44.824Z,1120
2016-12-10T12:57:55.545Z,1180
2016-12-10T12:59:06.310Z,1168
2016-12-10T13:00:17.039Z,1168
2016-12-10T13:01:27.802Z,1180
2016-12-10T13:02:38.532Z,1200
2016-12-10T13:03:49.254Z,1188
2016-12-10T13:04:59.999Z,1156
2016-12-10T13:06:10.761Z,1304
2016-12-10T13:07:21.541Z,1328
2016-12-10T13:08:32.290Z,1516
2016-12-10T13:09:43.023Z,1544
2016-12-10T13:10:53.749Z,1580
2016-12-10T13:12:04.476Z,1624
2016-12-10T13:13:15.240Z,1520
2016-12-10T13:14:25.987Z,1500
2016-12-10T13:15:36.711Z,1404
2016-12-10T13:16:47.446Z,1396
2016-12-10T13:17:58.179Z,1460
2016-12-10T13:19:08.917Z,1436
2016-12-10T13:20:19.647Z,1476
2016-12-10T13:21:30.390Z,1504
2016-12-10T13:22:41.133Z,1436
2016-12-10T13:23:51.876Z,1308
2016-12-10T13:25:02.606Z,1288
2016-12-10T13:26:13.368Z,1384
2016-12-10T13:27:24.096Z,1204
2016-12-10T13:28:34.835Z,1132
2016-12-10T13:29:45.589Z,1152
2016-12-10T13:30:56.334Z,1076
2016-12-10T13:32:07.080Z,1036
2016-12-10T13:33:17.845Z,1012
2016-12-10T13:34:28.595Z,944
2016-12-10T13:35:39.366Z,952
2016-12-10T13:36:50.090Z,972
2016-12-10T13:38:00.832Z,948
2016-12-10T13:39:11.570Z,884
2016-12-10T13:40:22.303Z,724
2016-12-10T13:41:33.067Z,604
2016-12-10T13:42:43.783Z,632
2016-12-10T13:43:54.519Z,636
2016-12-10T13:45:05.261Z,612
2016-12-10T13:46:15.997Z,584
2016-12-10T13:47:26.731Z,576
2016-12-10T13:48:37.471Z,528
2016-12-10T13:49:48.196Z,488
2016-12-10T13:50:58.960Z,484
2016-12-10T13:52:09.707Z,500
2016-12-10T13:53:20.455Z,480
2016-12-10T13:54:31.193Z,440
2016-12-10T13:55:41.995Z,448
2016-12-10T13:56:52.743Z,444
2016-12-10T13:58:03.443Z,452
2016-12-10T13:59:14.208Z,412
2016-12-10T14:00:24.957Z,408
2016-12-10T14:01:35.682Z,408
2016-12-10T14:02:46.423Z,396
2016-12-10T14:03:57.144Z,392
2016-12-10T14:05:07.888Z,364
2016-12-10T14:06:18.613Z,364
2016-12-10T14:07:29.354Z,344
2016-12-10T14:08:40.108Z,320
2016-12-10T14:09:50.842Z,332
2016-12-10T14:11:01.600Z,340
2016-12-10T14:12:12.341Z,344
2016-12-10T14:13:23.063Z,324
2016-12-10T14:14:33.808Z,304
2016-12-10T14:15:44.532Z,288
2016-12-10T14:16:55.280Z,320
2016-12-10T14:18:06.026Z,300
2016-12-10T14:19:16.789Z,288
2016-12-10T14:20:27.519Z,264
2016-12-10T14:21:38.265Z,268
2016-12-10T14:22:49.024Z,240
2016-12-10T14:23:59.785Z,240
2016-12-10T14:25:10.524Z,220
2016-12-10T14:26:21.248Z,192
2016-12-10T14:27:31.941Z,172
2016-12-10T14:28:42.691Z,172
2016-12-10T14:29:53.434Z,172
2016-12-10T14:31:04.185Z,176
2016-12-10T14:32:14.903Z,156
2016-12-10T14:33:25.962Z,148
2016-12-10T14:34:36.691Z,144
2016-12-10T14:35:47.415Z,132
2016-12-10T14:36:58.137Z,132
2016-12-10T14:38:08.858Z,112
2016-12-10T14:39:19.592Z,104
2016-12-10T14:40:30.346Z,104
2016-12-10T14:41:41.067Z,108
2016-12-10T14:42:51.814Z,96
2016-12-10T14:44:02.568Z,84
2016-12-10T14:45:13.309Z,68
2016-12-10T14:46:24.051Z,64
2016-12-10T14:47:34.807Z,64
2016-12-10T14:48:45.549Z,64
2016-12-10T14:49:56.290Z,68
2016-12-10T14:51:07.007Z,64
2016-12-10T14:52:17.761Z,56
2016-12-10T14:53:28.524Z,48
2016-12-10T14:54:39.244Z,48
2016-12-10T14:55:49.969Z,44
2016-12-10T14:57:00.691Z,40
2016-12-10T14:58:11.739Z,40
2016-12-10T14:59:22.461Z,32
2016-12-10T15:00:33.217Z,28
2016-12-10T15:01:43.948Z,24
2016-12-10T15:02:54.694Z,24
2016-12-10T15:04:05.416Z,20
2016-12-10T15:05:16.156Z,20
2016-12-10T15:06:26.881Z,20
2016-12-10T15:07:37.629Z,12
2016-12-10T15:08:48.366Z,12
2016-12-10T15:09:59.119Z,12
2016-12-10T15:11:09.844Z,8
2016-12-10T15:12:20.603Z,8
2016-12-10T15:13:31.354Z,8
2016-12-10T15:14:42.102Z,8
2016-12-10T15:15:52.877Z,4
2016-12-10T15:17:03.625Z,4
2016-12-10T15:18:14.370Z,4
2016-12-10T15:19:25.111Z,0
2016-12-10T15:20:35.840Z,4
2016-12-10T15:21:46.600Z,4
2016-12-10T15:22:57.366Z,4
2016-12-10T15:24:08.425Z,0
2016-12-10T15:25:19.183Z,0
2016-12-10T15:26:29.917Z,0
2016-12-10T15:27:40.976Z,0
2016-12-10T15:28:51.679Z,0
2016-12-10T15:30:02.401Z,0
2016-12-10T15:31:13.446Z,0
2016-12-10T15:32:24.171Z,0
2016-12-10T15:33:34.909Z,0
2016-12-10T15:34:45.634Z,0
2016-12-10T15:35:56.354Z,0
2016-12-10T15:37:07.097Z,0
2016-12-10T15:38:17.852Z,0
2016-12-10T15:39:28.619Z,0
2016-12-10T15:40:39.367Z,0
2016-12-10T15:41:50.114Z,0
2016-12-10T15:43:00.863Z,0
2016-12-10T15:44:11.622Z,0
2016-12-10T15:45:22.348Z,0
2016-12-10T15:46:33.060Z,0
2016-12-10T15:47:43.793Z,0
2016-12-10T15:48:54.537Z,0
2016-12-10T15:50:05.264Z,0
2016-12-10T15:51:16.031Z,0
2016-12-10T15:52:26.800Z,0
2016-12-10T15:53:37.544Z,0
2016-12-10T15:54:48.265Z,0
2016-12-10T15:55:59.014Z,0
2016-12-10T15:57:09.757Z,0
2016-12-10T15:58:20.499Z,0
2016-12-10T15:59:31.256Z,0
2016-12-10T16:00:41.994Z,0
2016-12-10T16:01:52.719Z,0
2016-12-10T16:03:03.483Z,0
2016-12-10T16:04:14.238Z,0
2016-12-10T16:05:24.981Z,0
2016-12-10T16:06:35.730Z,0
2016-12-10T16:07:46.472Z,0
2016-12-10T16:08:57.192Z,0
2016-12-10T16:10:07.917Z,0
2016-12-10T16:11:18.659Z,0
2016-12-10T16:12:29.405Z,0
2016-12-10T16:13:40.150Z,0
2016-12-10T16:14:50.871Z,0
2016-12-10T16:16:01.593Z,0
2016-12-10T16:17:12.343Z,0
2016-12-10T16:18:23.085Z,0
2016-12-10T16:19:33.839Z,0
2016-12-10T16:20:44.594Z,0
2016-12-10T16:21:55.340Z,0
2016-12-10T16:23:06.073Z,0
2016-12-10T16:24:16.812Z,0
2016-12-10T16:25:27.561Z,0
2016-12-10T16:26:38.346Z,0
2016-12-10T16:27:49.082Z,0
2016-12-10T16:28:59.826Z,0
2016-12-10T16:30:10.573Z,0
2016-12-10T16:31:21.321Z,0
2016-12-10T16:32:32.079Z,0
2016-12-10T16:33:42.838Z,0
2016-12-10T16:34:53.576Z,0
2016-12-10T16:36:04.325Z,0
2016-12-10T16:37:15.096Z,0
2016-12-10T16:38:25.845Z,0